createdAt,value
2018-10-12T00:00:36.842Z,31.33
2018-10-12T00:03:09.001Z,34.60
2018-10-12T00:05:41.549Z,29.13
2018-10-12T00:08:13.554Z,33.43
2018-10-12T00:10:45.576Z,36.70
2018-10-12T00:13:17.582Z,39.87
2018-10-12T00:15:49.575Z,36.70
2018-10-12T00:18:21.660Z,28.90
2018-10-12T00:20:53.662Z,33.77
2018-10-12T00:23:25.691Z,38.73
2018-10-12T00:25:57.686Z,32.37
2018-10-12T00:28:29.746Z,29.93
2018-10-12T00:31:01.754Z,42.33
2018-10-12T00:33:33.766Z,30.03
2018-10-12T00:36:05.861Z,32.03
2018-10-12T00:38:37.878Z,32.93
2018-10-12T00:41:09.863Z,28.13
2018-10-12T00:43:42.214Z,30.53
2018-10-12T00:46:14.210Z,32.70
2018-10-12T00:48:46.225Z,34.90
2018-10-12T00:51:18.214Z,31.83
2018-10-12T00:53:50.233Z,29.47
2018-10-12T00:56:22.223Z,28.50
2018-10-12T00:58:54.253Z,30.83
2018-10-12T01:01:26.258Z,33.27
2018-10-12T01:03:58.258Z,36.30
2018-10-12T01:06:30.310Z,34.97
2018-10-12T01:09:02.329Z,30.47
2018-10-12T01:11:34.330Z,34.17
2018-10-12T01:14:06.392Z,31.80
2018-10-12T01:16:38.414Z,40.53
2018-10-12T01:19:10.467Z,33.13
2018-10-12T01:21:42.473Z,28.37
2018-10-12T01:24:14.479Z,30.17
2018-10-12T01:26:46.499Z,39.33
2018-10-12T01:29:18.469Z,38.10
2018-10-12T01:31:50.487Z,32.83
2018-10-12T01:34:22.494Z,39.50
2018-10-12T01:36:54.514Z,36.27
2018-10-12T01:39:26.569Z,31.17
2018-10-12T01:41:58.565Z,34.87
2018-10-12T01:44:30.539Z,35.80
2018-10-12T01:47:02.565Z,36.47
2018-10-12T01:49:34.638Z,38.67
2018-10-12T01:52:07.198Z,36.03
2018-10-12T01:54:39.363Z,35.60
2018-10-12T01:57:12.205Z,32.00
2018-10-12T01:59:44.191Z,34.43
2018-10-12T02:02:16.188Z,33.23
2018-10-12T02:04:48.201Z,31.20
2018-10-12T02:07:20.207Z,37.83
2018-10-12T02:09:52.228Z,29.50
2018-10-12T02:12:24.242Z,37.03
2018-10-12T02:14:56.265Z,37.07
2018-10-12T02:17:28.298Z,42.20
2018-10-12T02:20:00.310Z,38.63
2018-10-12T02:22:32.325Z,39.90
2018-10-12T02:25:05.002Z,32.00
2018-10-12T02:27:37.011Z,37.40
2018-10-12T02:30:09.438Z,32.40
2018-10-12T02:32:41.462Z,38.80
2018-10-12T02:35:13.434Z,36.97
2018-10-12T02:37:45.429Z,36.93
2018-10-12T02:40:18.194Z,42.50
2018-10-12T02:42:50.218Z,40.07
2018-10-12T02:45:22.191Z,38.03
2018-10-12T02:47:54.218Z,43.00
2018-10-12T02:50:26.217Z,33.97
2018-10-12T02:52:58.236Z,40.90
2018-10-12T02:55:30.216Z,39.20
2018-10-12T02:58:02.220Z,42.07
2018-10-12T03:00:34.220Z,48.23
2018-10-12T03:03:06.250Z,41.83
2018-10-12T03:05:38.233Z,51.67
2018-10-12T03:08:10.246Z,43.80
2018-10-12T03:10:42.256Z,48.27
2018-10-12T03:13:14.260Z,44.33
2018-10-12T03:15:46.294Z,40.87
2018-10-12T03:18:18.293Z,45.00
2018-10-12T03:20:50.305Z,38.43
2018-10-12T03:23:22.272Z,49.43
2018-10-12T03:25:54.298Z,50.17
2018-10-12T03:28:27.987Z,52.87
2018-10-12T03:31:00.582Z,42.50
2018-10-12T03:33:32.890Z,45.50
2018-10-12T03:36:05.453Z,39.43
2018-10-12T03:38:37.518Z,47.27
2018-10-12T03:41:09.551Z,40.23
2018-10-12T03:43:41.542Z,41.20
2018-10-12T03:46:13.546Z,39.57
2018-10-12T03:48:45.542Z,39.77
2018-10-12T03:51:17.550Z,41.80
2018-10-12T03:53:49.526Z,47.63
2018-10-12T03:56:21.563Z,36.77
2018-10-12T03:58:53.542Z,43.03
2018-10-12T04:01:25.588Z,41.23
2018-10-12T04:03:57.574Z,39.40
2018-10-12T04:06:29.580Z,51.87
2018-10-12T04:09:01.580Z,44.23
2018-10-12T04:11:33.611Z,45.30
2018-10-12T04:14:05.608Z,52.50
2018-10-12T04:16:37.638Z,49.73
2018-10-12T04:19:09.642Z,54.47
2018-10-12T04:21:41.658Z,43.80
2018-10-12T04:24:13.689Z,46.80
2018-10-12T04:26:45.658Z,42.77
2018-10-12T04:29:17.662Z,47.07
2018-10-12T04:31:49.673Z,48.77
2018-10-12T04:34:21.657Z,52.03
2018-10-12T04:36:53.661Z,45.17
2018-10-12T04:39:43.628Z,49.17
2018-10-12T04:42:15.641Z,45.80
2018-10-12T04:44:47.634Z,42.10
2018-10-12T04:47:20.917Z,49.70
2018-10-12T04:49:53.194Z,50.67
2018-10-12T04:52:26.451Z,50.47
2018-10-12T04:54:58.582Z,54.57
2018-10-12T04:57:30.640Z,43.70
2018-10-12T05:00:02.663Z,44.47
2018-10-12T05:02:34.678Z,44.90
2018-10-12T05:05:06.675Z,43.80
2018-10-12T05:07:38.743Z,51.83
2018-10-12T05:10:10.680Z,55.40
2018-10-12T05:12:42.741Z,55.80
2018-10-12T05:15:14.726Z,55.87
2018-10-12T05:17:46.771Z,50.10
2018-10-12T05:20:18.790Z,62.57
2018-10-12T05:22:50.818Z,52.23
2018-10-12T05:25:22.802Z,62.07
2018-10-12T05:27:54.818Z,45.27
2018-10-12T05:30:26.849Z,49.97
2018-10-12T05:32:58.844Z,46.23
2018-10-12T05:35:30.843Z,52.20
2018-10-12T05:38:03.081Z,43.10
2018-10-12T05:40:35.110Z,42.93
2018-10-12T05:43:07.137Z,48.70
2018-10-12T05:45:39.145Z,41.97
2018-10-12T05:48:22.740Z,53.90
2018-10-12T05:50:54.887Z,56.80
2018-10-12T05:53:27.066Z,53.10
2018-10-12T05:55:59.306Z,54.10
2018-10-12T05:58:31.817Z,51.77
2018-10-12T06:01:03.866Z,50.80
2018-10-12T06:03:35.856Z,45.00
2018-10-12T06:06:07.918Z,58.47
2018-10-12T06:08:39.975Z,56.60
2018-10-12T06:11:12.006Z,46.80
2018-10-12T06:13:44.014Z,56.57
2018-10-12T06:16:16.331Z,44.67
2018-10-12T06:18:48.597Z,46.60
2018-10-12T06:21:20.621Z,37.70
2018-10-12T06:23:52.810Z,42.37
2018-10-12T06:26:24.804Z,39.33
2018-10-12T06:28:56.795Z,45.83
2018-10-12T06:31:28.909Z,37.10
2018-10-12T06:34:00.907Z,37.37
2018-10-12T06:36:32.894Z,40.97
2018-10-12T06:39:05.145Z,42.60
2018-10-12T06:41:37.237Z,37.83
2018-10-12T06:44:09.194Z,41.30
2018-10-12T06:46:41.286Z,39.27
2018-10-12T06:49:13.391Z,28.33
2018-10-12T06:51:45.392Z,27.60
2018-10-12T06:54:17.402Z,37.40
2018-10-12T06:56:49.428Z,34.13
2018-10-12T06:59:21.435Z,31.43
2018-10-12T07:01:53.458Z,39.27
2018-10-12T07:04:25.494Z,34.50
2018-10-12T07:06:57.533Z,30.63
2018-10-12T07:09:29.549Z,40.77
2018-10-12T07:12:01.547Z,34.27
2018-10-12T07:14:34.194Z,26.60
2018-10-12T07:17:06.491Z,30.83
2018-10-12T07:19:38.668Z,30.57
2018-10-12T07:22:10.627Z,29.17
2018-10-12T07:24:42.659Z,29.75
2018-10-12T07:27:14.626Z,26.45
2018-10-12T07:29:46.630Z,26.77
2018-10-12T07:32:18.619Z,24.82
2018-10-12T07:34:50.633Z,25.80
2018-10-12T07:37:22.935Z,35.33
2018-10-12T07:39:54.675Z,31.70
2018-10-12T07:42:26.682Z,30.90
2018-10-12T07:44:58.698Z,22.93
2018-10-12T07:47:30.736Z,22.07
2018-10-12T07:50:02.733Z,27.10
2018-10-12T07:52:34.721Z,26.23
2018-10-12T07:55:06.769Z,23.00
2018-10-12T07:57:38.763Z,21.50
2018-10-12T08:00:10.803Z,22.77
2018-10-12T08:02:42.799Z,25.43
2018-10-12T08:05:14.814Z,24.00
2018-10-12T08:07:46.802Z,26.77
2018-10-12T08:10:18.857Z,25.80
2018-10-12T08:12:50.874Z,20.20
2018-10-12T08:15:22.989Z,23.40
2018-10-12T08:17:54.990Z,28.45
2018-10-12T08:20:27.053Z,22.85
2018-10-12T08:22:59.030Z,21.27
2018-10-12T08:25:31.059Z,21.35
2018-10-12T08:28:03.070Z,27.60
2018-10-12T08:30:35.030Z,27.02
2018-10-12T08:33:07.042Z,23.47
2018-10-12T08:35:39.040Z,19.70
2018-10-12T08:38:11.079Z,22.65
2018-10-12T08:40:43.071Z,23.05
2018-10-12T08:43:15.071Z,25.95
2018-10-12T08:45:47.041Z,22.42
2018-10-12T08:48:19.090Z,24.07
2018-10-12T08:50:51.107Z,24.75
2018-10-12T08:53:23.113Z,22.77
2018-10-12T08:55:55.088Z,22.48
2018-10-12T08:58:27.109Z,20.68
2018-10-12T09:00:59.102Z,25.45
2018-10-12T09:03:31.106Z,30.55
2018-10-12T09:06:03.122Z,24.77
2018-10-12T09:08:35.114Z,22.80
2018-10-12T09:11:07.313Z,20.70
2018-10-12T09:13:39.310Z,23.60
2018-10-12T09:16:11.385Z,27.13
2018-10-12T09:18:43.350Z,24.32
2018-10-12T09:21:15.374Z,18.00
2018-10-12T09:23:47.432Z,23.38
2018-10-12T09:26:19.494Z,19.32
2018-10-12T09:28:51.491Z,22.00
2018-10-12T09:31:23.502Z,20.15
2018-10-12T09:33:55.536Z,24.32
2018-10-12T09:36:27.554Z,23.40
2018-10-12T09:38:59.551Z,22.65
2018-10-12T09:41:31.578Z,27.58
2018-10-12T09:44:03.580Z,23.77
2018-10-12T09:46:35.628Z,21.25
2018-10-12T09:49:08.055Z,23.02
2018-10-12T09:51:40.129Z,25.68
2018-10-12T09:54:12.131Z,18.07
2018-10-12T09:56:48.774Z,18.15
2018-10-12T09:59:20.773Z,18.30
2018-10-12T10:01:58.570Z,22.27
2018-10-12T10:04:32.012Z,19.37
2018-10-12T10:07:04.495Z,14.65
2018-10-12T10:09:36.485Z,25.70
2018-10-12T10:12:08.510Z,21.97
2018-10-12T10:14:40.534Z,24.67
2018-10-12T10:17:12.702Z,18.62
2018-10-12T10:19:44.738Z,18.77
2018-10-12T10:22:16.798Z,20.05
2018-10-12T10:24:48.968Z,23.95
2018-10-12T10:27:22.236Z,18.27
2018-10-12T10:29:54.250Z,20.40
2018-10-12T10:32:27.321Z,24.30
2018-10-12T10:34:59.357Z,15.08
2018-10-12T10:37:31.531Z,22.52
2018-10-12T10:40:03.731Z,24.18
2018-10-12T10:42:35.739Z,19.23
2018-10-12T10:45:07.866Z,19.23
2018-10-12T10:47:39.890Z,19.15
2018-10-12T10:50:11.956Z,19.12
2018-10-12T10:52:44.026Z,16.05
2018-10-12T10:55:16.234Z,21.60
2018-10-12T10:57:48.238Z,19.52
2018-10-12T11:00:20.350Z,17.02
2018-10-12T11:02:52.515Z,16.15
2018-10-12T11:05:24.568Z,15.63
2018-10-12T11:07:56.656Z,17.50
2018-10-12T11:10:28.686Z,21.27
2018-10-12T11:13:00.690Z,18.50
2018-10-12T11:15:32.750Z,19.27
2018-10-12T11:18:04.986Z,16.27
2018-10-12T11:20:37.065Z,22.37
2018-10-12T11:23:09.051Z,20.08
2018-10-12T11:25:41.142Z,22.82
2018-10-12T11:28:13.279Z,17.48
2018-10-12T11:30:45.299Z,28.50
2018-10-12T11:33:17.311Z,15.85
2018-10-12T11:35:49.327Z,22.58
2018-10-12T11:38:21.362Z,21.52
2018-10-12T11:40:53.351Z,17.20
2018-10-12T11:43:29.258Z,16.95
2018-10-12T11:46:01.519Z,18.35
2018-10-12T11:48:33.563Z,18.00
2018-10-12T11:51:05.603Z,17.92
2018-10-12T11:53:37.638Z,15.72
2018-10-12T11:56:09.635Z,17.42
2018-10-12T11:58:41.651Z,20.10
2018-10-12T12:01:13.635Z,18.42
2018-10-12T12:03:45.671Z,20.23
2018-10-12T12:06:17.654Z,18.30
2018-10-12T12:08:49.679Z,22.05
2018-10-12T12:11:21.675Z,23.55
2018-10-12T12:13:53.784Z,26.12
2018-10-12T12:16:25.722Z,18.42
2018-10-12T12:18:57.760Z,18.17
2018-10-12T12:21:30.293Z,16.17
2018-10-12T12:24:02.286Z,16.15
2018-10-12T12:26:34.304Z,20.45
2018-10-12T12:29:06.355Z,18.87
2018-10-12T12:31:38.359Z,17.85
2018-10-12T12:34:10.372Z,16.65
2018-10-12T12:36:42.920Z,19.12
2018-10-12T12:39:14.955Z,16.25
2018-10-12T12:41:47.076Z,19.12
2018-10-12T12:44:18.999Z,14.03
2018-10-12T12:46:51.021Z,16.60
2018-10-12T12:49:23.316Z,12.30
2018-10-12T12:51:55.035Z,14.95
2018-10-12T12:54:27.085Z,17.77
2018-10-12T12:56:59.119Z,17.00
2018-10-12T12:59:31.125Z,18.42
2018-10-12T13:02:03.166Z,19.98
2018-10-12T13:04:35.211Z,17.00
2018-10-12T13:07:07.311Z,16.30
2018-10-12T13:09:39.296Z,14.10
2018-10-12T13:12:11.313Z,22.75
2018-10-12T13:14:43.666Z,13.83
2018-10-12T13:17:15.963Z,18.80
2018-10-12T13:19:47.996Z,21.87
2018-10-12T13:22:20.007Z,20.88
2018-10-12T13:24:52.005Z,15.90
2018-10-12T13:27:24.023Z,14.05
2018-10-12T13:29:56.025Z,19.82
2018-10-12T13:32:28.079Z,16.62
2018-10-12T13:35:00.098Z,17.27
2018-10-12T13:37:32.167Z,18.52
2018-10-12T13:40:04.226Z,14.10
2018-10-12T13:42:36.221Z,18.20
2018-10-12T13:45:08.326Z,21.20
2018-10-12T13:47:40.377Z,14.13
2018-10-12T13:50:12.396Z,23.10
2018-10-12T13:52:44.469Z,27.32
2018-10-12T13:55:16.496Z,21.77
2018-10-12T13:57:48.509Z,17.12
2018-10-12T14:00:20.584Z,14.13
2018-10-12T14:02:52.555Z,24.80
2018-10-12T14:05:24.555Z,21.50
2018-10-12T14:07:56.560Z,17.25
2018-10-12T14:10:28.573Z,31.15
2018-10-12T14:13:00.558Z,15.83
2018-10-12T14:15:32.581Z,13.00
2018-10-12T14:18:04.999Z,20.43
2018-10-12T14:20:37.007Z,20.92
2018-10-12T14:23:08.997Z,20.70
2018-10-12T14:25:41.020Z,19.00
2018-10-12T14:28:13.034Z,24.40
2018-10-12T14:30:45.050Z,24.23
2018-10-12T14:33:17.056Z,20.23
2018-10-12T14:35:49.114Z,18.17
2018-10-12T14:38:21.073Z,18.20
2018-10-12T14:40:53.118Z,14.28
2018-10-12T14:43:25.130Z,26.65
2018-10-12T14:45:57.198Z,19.50
2018-10-12T14:48:29.213Z,21.52
2018-10-12T14:51:01.222Z,19.05
2018-10-12T14:53:33.290Z,23.15
2018-10-12T14:56:05.491Z,16.93
2018-10-12T14:58:37.521Z,15.70
2018-10-12T15:01:09.537Z,17.80
2018-10-12T15:03:41.573Z,19.00
2018-10-12T15:06:13.626Z,21.45
2018-10-12T15:08:45.699Z,18.75
2018-10-12T15:11:17.733Z,25.77
2018-10-12T15:13:49.736Z,17.77
2018-10-12T15:16:21.779Z,24.75
2018-10-12T15:18:53.793Z,14.93
2018-10-12T15:21:25.970Z,20.08
2018-10-12T15:23:57.853Z,20.95
2018-10-12T15:26:29.874Z,12.35
2018-10-12T15:29:01.845Z,22.50
2018-10-12T15:31:33.861Z,24.15
2018-10-12T15:34:06.607Z,23.45
2018-10-12T15:36:38.701Z,29.57
2018-10-12T15:39:10.816Z,16.52
2018-10-12T15:41:42.847Z,21.82
2018-10-12T15:44:14.860Z,31.57
2018-10-12T15:46:46.943Z,29.55
2018-10-12T15:49:18.919Z,17.97
2018-10-12T15:51:51.042Z,15.30
2018-10-12T15:54:23.126Z,19.67
2018-10-12T15:56:55.187Z,29.83
2018-10-12T15:59:27.298Z,33.40
2018-10-12T16:01:59.347Z,29.27
2018-10-12T16:04:31.462Z,35.88
2018-10-12T16:07:03.475Z,29.37
2018-10-12T16:09:35.485Z,37.47
2018-10-12T16:12:07.713Z,37.63
2018-10-12T16:14:39.844Z,35.07
2018-10-12T16:17:11.890Z,34.23
2018-10-12T16:19:43.965Z,31.73
2018-10-12T16:22:15.985Z,30.93
2018-10-12T16:24:59.577Z,26.33
2018-10-12T16:27:31.576Z,34.57
2018-10-12T16:30:03.654Z,32.40
2018-10-12T16:32:35.654Z,36.83
2018-10-12T16:35:08.816Z,38.07
2018-10-12T16:37:41.970Z,36.00
2018-10-12T16:40:14.125Z,26.50
2018-10-12T16:42:46.138Z,28.87
2018-10-12T16:45:19.689Z,33.23
2018-10-12T16:47:52.851Z,26.60
2018-10-12T16:50:25.973Z,26.23
2018-10-12T16:52:59.116Z,30.97
2018-10-12T16:55:32.295Z,20.03
2018-10-12T16:58:05.640Z,22.47
2018-10-12T17:00:38.719Z,18.20
2018-10-12T17:03:12.080Z,27.13
2018-10-12T17:05:45.238Z,27.50
2018-10-12T17:08:18.432Z,23.73
2018-10-12T17:10:51.938Z,24.47
2018-10-12T17:13:25.358Z,18.93
2018-10-12T17:15:58.985Z,37.30
2018-10-12T17:18:32.413Z,26.90
2018-10-12T17:21:05.789Z,25.60
2018-10-12T17:23:39.328Z,24.50
2018-10-12T17:26:12.580Z,21.17
2018-10-12T17:28:45.786Z,22.07
2018-10-12T17:31:19.003Z,26.20
2018-10-12T17:33:51.129Z,22.40
2018-10-12T17:36:23.361Z,29.17
2018-10-12T17:38:55.508Z,36.67
2018-10-12T17:41:27.587Z,39.20
2018-10-12T17:43:59.592Z,39.63
2018-10-12T17:46:31.630Z,39.60
2018-10-12T17:49:03.629Z,25.60
2018-10-12T17:51:35.729Z,25.27
2018-10-12T17:54:09.127Z,24.03
2018-10-12T17:56:41.272Z,23.70
2018-10-12T17:59:13.308Z,30.33
2018-10-12T18:01:45.364Z,38.20
2018-10-12T18:04:17.470Z,54.37
2018-10-12T18:06:49.511Z,41.13
2018-10-12T18:09:21.674Z,32.53
2018-10-12T18:11:54.160Z,31.67
2018-10-12T18:14:26.361Z,30.13
2018-10-12T18:16:58.267Z,29.80
2018-10-12T18:19:30.341Z,40.93
2018-10-12T18:22:02.354Z,32.50
2018-10-12T18:24:34.410Z,35.47
2018-10-12T18:27:06.961Z,29.17
2018-10-12T18:29:39.084Z,30.03
2018-10-12T18:32:11.150Z,30.00
2018-10-12T18:34:43.220Z,36.27
2018-10-12T18:37:15.262Z,41.70
2018-10-12T18:39:47.279Z,25.73
2018-10-12T18:42:19.406Z,35.63
2018-10-12T18:44:51.443Z,37.77
2018-10-12T18:47:23.663Z,34.20
2018-10-12T18:49:55.729Z,34.90
2018-10-12T18:52:28.543Z,35.07
2018-10-12T18:55:01.507Z,25.43
2018-10-12T18:57:34.483Z,37.07
2018-10-12T19:00:07.488Z,43.87
2018-10-12T19:02:39.399Z,41.50
2018-10-12T19:05:11.530Z,47.40
2018-10-12T19:07:43.531Z,42.07
2018-10-12T19:10:15.572Z,47.73
2018-10-12T19:12:47.578Z,36.90
2018-10-12T19:15:19.623Z,45.33
2018-10-12T19:17:51.654Z,45.47
2018-10-12T19:20:23.715Z,57.50
2018-10-12T19:22:55.765Z,42.37
2018-10-12T19:25:27.826Z,41.50
2018-10-12T19:27:59.869Z,38.50
2018-10-12T19:30:31.946Z,34.87
2018-10-12T19:33:04.023Z,30.07
2018-10-12T19:35:36.078Z,30.67
2018-10-12T19:38:08.207Z,29.90
2018-10-12T19:40:40.251Z,39.77
2018-10-12T19:43:12.283Z,37.23
2018-10-12T19:45:44.303Z,32.80
2018-10-12T19:48:16.501Z,34.00
2018-10-12T19:50:48.575Z,36.23
2018-10-12T19:53:20.574Z,40.50
2018-10-12T19:55:52.602Z,37.73
2018-10-12T19:58:24.613Z,45.03
2018-10-12T20:00:56.652Z,46.33
2018-10-12T20:03:28.684Z,33.53
2018-10-12T20:06:00.909Z,39.03
2018-10-12T20:08:32.899Z,35.67
2018-10-12T20:11:04.940Z,36.43
2018-10-12T20:13:36.966Z,46.23
2018-10-12T20:16:09.002Z,38.67
2018-10-12T20:18:41.092Z,40.70
2018-10-12T20:21:13.099Z,41.97
2018-10-12T20:23:45.164Z,37.30
2018-10-12T20:26:17.318Z,41.13
2018-10-12T20:28:49.372Z,47.47
2018-10-12T20:31:21.714Z,41.57
2018-10-12T20:33:53.752Z,42.37
2018-10-12T20:36:25.959Z,47.03
2018-10-12T20:38:58.008Z,40.70
2018-10-12T20:41:32.153Z,33.87
2018-10-12T20:44:04.209Z,42.87
2018-10-12T20:46:36.444Z,40.57
2018-10-12T20:49:08.485Z,41.90
2018-10-12T20:51:40.520Z,43.07
2018-10-12T20:54:12.569Z,46.33
2018-10-12T20:56:44.654Z,55.70
2018-10-12T20:59:16.691Z,37.10
2018-10-12T21:01:48.730Z,32.63
2018-10-12T21:04:20.751Z,38.50
2018-10-12T21:06:52.772Z,39.53
2018-10-12T21:09:24.833Z,38.37
2018-10-12T21:11:56.833Z,35.13
2018-10-12T21:14:28.874Z,45.57
2018-10-12T21:17:00.863Z,36.47
2018-10-12T21:19:32.923Z,35.90
2018-10-12T21:22:04.950Z,39.93
2018-10-12T21:24:36.966Z,35.10
2018-10-12T21:27:09.016Z,35.60
2018-10-12T21:29:41.023Z,33.87
2018-10-12T21:32:13.081Z,31.07
2018-10-12T21:34:45.074Z,36.17
2018-10-12T21:37:17.166Z,36.03
2018-10-12T21:39:49.196Z,40.57
2018-10-12T21:42:21.199Z,43.80
2018-10-12T21:44:53.197Z,45.80
2018-10-12T21:47:25.237Z,38.23
2018-10-12T21:49:57.247Z,42.03
2018-10-12T21:52:29.338Z,49.13
2018-10-12T21:55:01.383Z,45.10
2018-10-12T21:57:34.601Z,49.13
2018-10-12T22:00:06.639Z,48.13
2018-10-12T22:02:38.649Z,51.27
2018-10-12T22:05:10.754Z,48.27
2018-10-12T22:07:42.770Z,46.77
2018-10-12T22:10:14.818Z,45.97
2018-10-12T22:12:46.855Z,40.10
2018-10-12T22:15:18.883Z,46.13
2018-10-12T22:17:50.912Z,39.03
2018-10-12T22:20:22.922Z,44.47
2018-10-12T22:22:54.938Z,46.97
2018-10-12T22:25:26.969Z,47.83
2018-10-12T22:27:59.034Z,52.97
2018-10-12T22:30:31.060Z,51.40
2018-10-12T22:33:03.077Z,55.23
2018-10-12T22:35:35.144Z,46.27
2018-10-12T22:38:07.155Z,39.77
2018-10-12T22:40:39.254Z,37.87
2018-10-12T22:43:11.257Z,36.73
2018-10-12T22:45:43.311Z,40.47
2018-10-12T22:48:15.342Z,43.67
2018-10-12T22:50:47.357Z,50.50
2018-10-12T22:53:19.410Z,43.53
2018-10-12T22:55:51.387Z,46.10
2018-10-12T22:58:23.416Z,47.97
2018-10-12T23:00:55.434Z,43.60
2018-10-12T23:03:27.466Z,36.83
2018-10-12T23:06:00.175Z,40.43
2018-10-12T23:08:32.212Z,42.67
2018-10-12T23:11:04.347Z,46.60
2018-10-12T23:13:36.354Z,44.50
2018-10-12T23:16:08.338Z,48.83
2018-10-12T23:18:40.398Z,51.47
2018-10-12T23:21:12.434Z,43.10
2018-10-12T23:23:44.449Z,51.93
2018-10-12T23:26:16.558Z,47.50
2018-10-12T23:28:48.587Z,48.37
2018-10-12T23:31:20.620Z,55.50
2018-10-12T23:34:00.213Z,61.60
2018-10-12T23:36:32.202Z,47.90
2018-10-12T23:39:06.517Z,45.73
2018-10-12T23:41:38.529Z,44.97
2018-10-12T23:44:10.611Z,53.97
2018-10-12T23:46:42.613Z,49.87
2018-10-12T23:49:14.731Z,51.57
2018-10-12T23:51:46.772Z,50.30
2018-10-12T23:54:18.821Z,49.77
2018-10-12T23:56:50.790Z,48.20
2018-10-12T23:59:22.826Z,53.70
